createdAt,value
2019-01-18T00:01:38.699Z,3.97
2019-01-18T00:04:08.006Z,2.00
2019-01-18T00:06:37.290Z,3.20
2019-01-18T00:09:08.524Z,3.70
2019-01-18T00:11:37.825Z,3.80
2019-01-18T00:14:07.136Z,2.40
2019-01-18T00:16:36.917Z,5.07
2019-01-18T00:19:08.013Z,1.80
2019-01-18T00:21:37.334Z,2.10
2019-01-18T00:24:06.738Z,3.87
2019-01-18T00:26:36.071Z,4.33
2019-01-18T00:29:05.336Z,3.50
2019-01-18T00:31:34.606Z,2.60
2019-01-18T00:34:03.973Z,4.17
2019-01-18T00:36:33.257Z,2.93
2019-01-18T00:39:02.511Z,4.10
2019-01-18T00:41:31.790Z,3.67
2019-01-18T00:44:01.090Z,4.33
2019-01-18T00:46:30.342Z,2.43
2019-01-18T00:48:59.712Z,2.80
2019-01-18T00:51:28.957Z,4.27
2019-01-18T00:53:58.240Z,5.40
2019-01-18T00:56:27.520Z,2.73
2019-01-18T00:58:56.821Z,2.70
2019-01-18T01:01:26.082Z,4.20
2019-01-18T01:03:55.345Z,4.10
2019-01-18T01:06:24.619Z,4.47
2019-01-18T01:08:54.899Z,4.03
2019-01-18T01:11:24.377Z,3.20
2019-01-18T01:13:53.714Z,4.27
2019-01-18T01:16:23.002Z,1.53
2019-01-18T01:18:52.270Z,3.87
2019-01-18T01:21:21.662Z,1.93
2019-01-18T01:23:50.929Z,2.00
2019-01-18T01:26:20.200Z,4.37
2019-01-18T01:28:49.470Z,3.10
2019-01-18T01:31:18.730Z,2.70
2019-01-18T01:33:48.023Z,2.20
2019-01-18T01:36:17.297Z,2.00
2019-01-18T01:38:46.558Z,4.27
2019-01-18T01:41:15.835Z,2.90
2019-01-18T01:43:45.094Z,4.53
2019-01-18T01:46:14.367Z,2.93
2019-01-18T01:48:43.619Z,2.00
2019-01-18T01:51:12.891Z,4.00
2019-01-18T01:53:43.258Z,5.73
2019-01-18T01:56:12.542Z,2.93
2019-01-18T01:58:41.795Z,3.10
2019-01-18T02:01:11.053Z,6.50
2019-01-18T02:03:40.318Z,2.50
2019-01-18T02:06:09.579Z,3.63
2019-01-18T02:08:38.881Z,4.97
2019-01-18T02:11:08.138Z,3.97
2019-01-18T02:13:39.221Z,2.67
2019-01-18T02:16:08.495Z,4.50
2019-01-18T02:18:37.752Z,3.63
2019-01-18T02:21:07.042Z,5.00
2019-01-18T02:23:36.337Z,4.80
2019-01-18T02:26:05.956Z,3.77
2019-01-18T02:28:35.217Z,3.43
2019-01-18T02:31:04.485Z,5.20
2019-01-18T02:33:33.761Z,3.23
2019-01-18T02:36:03.045Z,2.93
2019-01-18T02:38:32.298Z,5.77
2019-01-18T02:41:01.557Z,2.47
2019-01-18T02:43:30.837Z,3.83
2019-01-18T02:46:00.103Z,8.40
2019-01-18T02:48:30.575Z,6.93
2019-01-18T02:50:59.835Z,4.13
2019-01-18T02:53:29.109Z,3.20
2019-01-18T02:55:58.371Z,3.73
2019-01-18T02:58:28.649Z,4.37
2019-01-18T03:00:57.925Z,3.73
2019-01-18T03:03:27.180Z,4.67
2019-01-18T03:05:56.490Z,4.27
2019-01-18T03:08:26.844Z,3.27
2019-01-18T03:10:56.138Z,3.77
2019-01-18T03:13:25.413Z,5.73
2019-01-18T03:15:54.720Z,5.93
2019-01-18T03:18:23.991Z,2.77
2019-01-18T03:20:53.267Z,4.63
2019-01-18T03:23:22.516Z,4.00
2019-01-18T03:25:51.786Z,2.37
2019-01-18T03:28:21.125Z,4.97
2019-01-18T03:30:50.379Z,7.63
2019-01-18T03:33:19.644Z,2.73
2019-01-18T03:35:48.889Z,3.77
2019-01-18T03:38:18.166Z,5.60
2019-01-18T03:40:47.413Z,5.80
2019-01-18T03:43:16.686Z,2.63
2019-01-18T03:45:45.951Z,4.00
2019-01-18T03:48:15.265Z,4.03
2019-01-18T03:50:44.519Z,2.80
2019-01-18T03:53:13.770Z,5.93
2019-01-18T03:55:43.051Z,2.90
2019-01-18T03:58:12.315Z,2.43
2019-01-18T04:00:41.601Z,5.73
2019-01-18T04:03:10.859Z,4.33
2019-01-18T04:05:40.155Z,4.63
2019-01-18T04:08:09.421Z,3.23
2019-01-18T04:10:38.691Z,2.47
2019-01-18T04:13:07.967Z,5.27
2019-01-18T04:15:37.239Z,3.97
2019-01-18T04:18:06.738Z,6.17
2019-01-18T04:20:36.377Z,7.60
2019-01-18T04:23:05.732Z,4.13
2019-01-18T04:25:35.225Z,3.73
2019-01-18T04:28:04.702Z,5.63
2019-01-18T04:30:33.956Z,4.13
2019-01-18T04:33:03.268Z,3.13
2019-01-18T04:35:32.525Z,3.03
2019-01-18T04:38:01.795Z,5.00
2019-01-18T04:40:31.127Z,4.07
2019-01-18T04:43:00.337Z,3.43
2019-01-18T04:45:29.677Z,7.00
2019-01-18T04:47:58.953Z,2.40
2019-01-18T04:50:29.226Z,4.93
2019-01-18T04:52:58.525Z,3.37
2019-01-18T04:55:27.774Z,4.77
2019-01-18T04:57:57.046Z,6.77
2019-01-18T05:00:28.312Z,4.20
2019-01-18T05:02:57.606Z,5.37
2019-01-18T05:05:27.175Z,8.03
2019-01-18T05:07:56.440Z,4.03
2019-01-18T05:10:27.518Z,4.07
2019-01-18T05:12:56.837Z,5.47
2019-01-18T05:15:31.401Z,3.40
2019-01-18T05:18:00.659Z,3.50
2019-01-18T05:20:30.014Z,3.83
2019-01-18T05:22:59.282Z,3.67
2019-01-18T05:25:28.556Z,4.07
2019-01-18T05:27:57.842Z,5.10
2019-01-18T05:30:28.830Z,5.80
2019-01-18T05:32:58.185Z,6.27
2019-01-18T05:35:27.566Z,7.63
2019-01-18T05:37:57.046Z,3.93
2019-01-18T05:40:26.334Z,6.50
2019-01-18T05:42:55.587Z,5.77
2019-01-18T05:45:24.878Z,6.83
2019-01-18T05:47:54.200Z,11.10
2019-01-18T05:50:25.722Z,6.27
2019-01-18T05:52:56.467Z,5.23
2019-01-18T05:55:25.727Z,5.67
2019-01-18T05:57:56.958Z,3.63
2019-01-18T06:00:46.939Z,6.87
2019-01-18T06:03:16.259Z,4.90
2019-01-18T06:05:47.875Z,6.47
2019-01-18T06:08:17.325Z,4.27
2019-01-18T06:10:49.163Z,7.80
2019-01-18T06:13:19.941Z,7.03
2019-01-18T06:15:50.329Z,4.80
2019-01-18T06:18:21.556Z,7.13
2019-01-18T06:20:51.255Z,4.60
2019-01-18T06:23:20.763Z,5.70
2019-01-18T06:25:50.501Z,6.77
2019-01-18T06:28:20.154Z,6.00
2019-01-18T06:30:49.690Z,7.93
2019-01-18T06:33:19.177Z,8.73
2019-01-18T06:35:48.847Z,9.67
2019-01-18T06:38:18.395Z,7.57
2019-01-18T06:40:49.257Z,6.83
2019-01-18T06:43:18.848Z,6.80
2019-01-18T06:45:48.266Z,9.17
2019-01-18T06:48:21.460Z,8.73
2019-01-18T06:50:51.099Z,7.93
2019-01-18T06:53:20.817Z,8.20
2019-01-18T06:55:50.971Z,10.87
2019-01-18T06:58:20.576Z,6.63
2019-01-18T07:00:50.125Z,8.33
2019-01-18T07:03:19.571Z,9.23
2019-01-18T07:05:50.318Z,6.87
2019-01-18T07:08:19.584Z,8.80
2019-01-18T07:10:48.841Z,5.77
2019-01-18T07:13:18.153Z,7.23
2019-01-18T07:15:47.436Z,6.87
2019-01-18T07:18:16.704Z,7.87
2019-01-18T07:20:45.946Z,9.80
2019-01-18T07:23:15.233Z,5.93
2019-01-18T07:25:44.512Z,6.13
2019-01-18T07:28:13.766Z,6.93
2019-01-18T07:30:43.874Z,4.57
2019-01-18T07:33:15.139Z,6.97
2019-01-18T07:35:44.431Z,9.13
2019-01-18T07:38:13.675Z,6.93
2019-01-18T07:40:42.955Z,7.00
2019-01-18T07:43:12.218Z,7.80
2019-01-18T07:45:41.495Z,7.27
2019-01-18T07:48:10.789Z,7.13
2019-01-18T07:50:40.048Z,5.53
2019-01-18T07:53:09.443Z,7.87
2019-01-18T07:55:38.697Z,5.53
2019-01-18T07:58:08.007Z,7.83
2019-01-18T08:00:37.293Z,6.70
2019-01-18T08:03:06.558Z,6.20
2019-01-18T08:05:35.822Z,8.67
2019-01-18T08:08:05.707Z,5.93
2019-01-18T08:10:34.984Z,6.43
2019-01-18T08:13:05.050Z,7.43
2019-01-18T08:15:34.354Z,6.87
2019-01-18T08:18:03.611Z,6.03
2019-01-18T08:20:32.862Z,4.90
2019-01-18T08:23:02.998Z,5.57
2019-01-18T08:25:32.259Z,6.37
2019-01-18T08:28:02.224Z,3.73
2019-01-18T08:30:32.326Z,5.23
2019-01-18T08:33:01.611Z,5.53
2019-01-18T08:35:31.772Z,4.30
2019-01-18T08:38:01.266Z,4.10
2019-01-18T08:40:32.969Z,7.37
2019-01-18T08:43:02.320Z,7.90
2019-01-18T08:45:43.456Z,4.17
2019-01-18T08:48:12.726Z,3.97
2019-01-18T08:50:42.738Z,4.17
2019-01-18T08:53:12.024Z,7.73
2019-01-18T08:55:41.274Z,5.57
2019-01-18T08:58:10.557Z,6.63
2019-01-18T09:00:39.815Z,7.23
2019-01-18T09:03:09.202Z,6.20
2019-01-18T09:05:38.504Z,4.27
2019-01-18T09:08:07.763Z,6.67
2019-01-18T09:10:41.169Z,5.10
2019-01-18T09:13:13.843Z,5.83
2019-01-18T09:15:46.236Z,5.40
2019-01-18T09:18:15.607Z,13.33
2019-01-18T09:20:44.942Z,5.50
2019-01-18T09:23:14.201Z,3.23
2019-01-18T09:25:43.494Z,3.33
2019-01-18T09:28:12.743Z,4.57
2019-01-18T09:30:41.995Z,3.77
2019-01-18T09:33:11.310Z,6.17
2019-01-18T09:35:41.579Z,5.27
2019-01-18T09:38:17.851Z,3.40
2019-01-18T09:40:46.988Z,6.07
2019-01-18T09:43:17.719Z,9.67
2019-01-18T09:45:46.995Z,5.80
2019-01-18T09:48:16.245Z,6.83
2019-01-18T09:50:45.519Z,3.77
2019-01-18T09:53:14.909Z,5.43
2019-01-18T09:55:44.193Z,3.70
2019-01-18T09:58:13.453Z,6.77
2019-01-18T10:00:42.811Z,7.80
2019-01-18T10:03:12.085Z,4.90
2019-01-18T10:05:41.345Z,5.00
2019-01-18T10:08:12.115Z,2.80
2019-01-18T10:10:41.781Z,2.87
2019-01-18T10:13:11.042Z,5.03
2019-01-18T10:15:45.411Z,2.40
2019-01-18T10:18:15.215Z,5.00
2019-01-18T10:20:44.517Z,2.83
2019-01-18T10:23:13.790Z,3.20
2019-01-18T10:25:43.087Z,4.43
2019-01-18T10:28:13.782Z,4.07
2019-01-18T10:30:44.354Z,2.23
2019-01-18T10:33:13.730Z,5.40
2019-01-18T10:35:43.018Z,3.17
2019-01-18T10:38:12.385Z,2.47
2019-01-18T10:40:41.639Z,5.70
2019-01-18T10:43:10.915Z,3.77
2019-01-18T10:45:40.275Z,3.37
2019-01-18T10:48:09.555Z,4.20
2019-01-18T10:50:38.807Z,3.63
2019-01-18T10:53:08.104Z,4.33
2019-01-18T10:55:37.347Z,5.97
2019-01-18T10:58:06.600Z,2.43
2019-01-18T11:00:37.371Z,3.87
2019-01-18T11:03:07.169Z,3.00
2019-01-18T11:05:36.454Z,5.80
2019-01-18T11:08:05.727Z,5.40
2019-01-18T11:10:35.149Z,2.37
2019-01-18T11:13:04.509Z,2.03
2019-01-18T11:15:35.939Z,2.40
2019-01-18T11:18:05.929Z,2.00
2019-01-18T11:20:45.568Z,3.90
2019-01-18T11:23:14.850Z,4.43
2019-01-18T11:25:44.204Z,3.80
2019-01-18T11:28:13.581Z,2.23
2019-01-18T11:30:42.837Z,4.43
2019-01-18T11:33:12.117Z,2.37
2019-01-18T11:35:41.484Z,3.70
2019-01-18T11:38:10.861Z,1.97
2019-01-18T11:40:40.162Z,3.67
2019-01-18T11:43:09.450Z,2.13
2019-01-18T11:45:38.722Z,3.93
2019-01-18T11:48:08.992Z,3.50
2019-01-18T11:50:38.309Z,2.40
2019-01-18T11:53:07.556Z,2.90
2019-01-18T11:55:36.853Z,3.33
2019-01-18T11:58:06.683Z,3.10
2019-01-18T12:00:37.923Z,2.27
2019-01-18T12:03:07.208Z,3.20
2019-01-18T12:05:36.642Z,2.67
2019-01-18T12:08:06.179Z,3.30
2019-01-18T12:10:35.489Z,3.23
2019-01-18T12:13:05.168Z,4.13
2019-01-18T12:15:34.461Z,1.90
2019-01-18T12:18:03.807Z,5.53
2019-01-18T12:20:37.252Z,2.50
2019-01-18T12:23:07.521Z,2.10
2019-01-18T12:25:36.900Z,2.37
2019-01-18T12:28:06.840Z,1.87
2019-01-18T12:30:37.370Z,2.93
2019-01-18T12:33:06.721Z,5.00
2019-01-18T12:35:36.002Z,3.00
2019-01-18T12:38:05.704Z,2.27
2019-01-18T12:40:35.063Z,2.03
2019-01-18T12:43:04.410Z,2.23
2019-01-18T12:45:35.084Z,1.93
2019-01-18T12:48:05.534Z,1.57
2019-01-18T12:50:39.928Z,2.17
2019-01-18T12:53:09.959Z,1.57
2019-01-18T12:55:39.333Z,2.43
2019-01-18T12:58:08.781Z,1.67
2019-01-18T13:00:38.138Z,2.83
2019-01-18T13:03:08.435Z,2.07
2019-01-18T13:05:56.387Z,3.90
2019-01-18T13:08:25.650Z,1.33
2019-01-18T13:10:54.936Z,1.57
2019-01-18T13:13:24.207Z,1.53
2019-01-18T13:16:26.280Z,2.00
2019-01-18T13:18:58.517Z,1.80
2019-01-18T13:21:27.821Z,1.37
2019-01-18T13:23:57.089Z,1.83
2019-01-18T13:26:26.372Z,2.47
2019-01-18T13:28:55.650Z,2.27
2019-01-18T13:31:25.102Z,3.00
2019-01-18T13:33:54.418Z,1.50
2019-01-18T13:36:23.726Z,4.60
2019-01-18T13:38:53.018Z,2.90
2019-01-18T13:41:22.490Z,2.27
2019-01-18T13:43:51.746Z,1.20
2019-01-18T13:46:21.152Z,1.63
2019-01-18T13:48:51.521Z,1.67
2019-01-18T13:51:21.017Z,3.00
2019-01-18T13:53:50.325Z,3.83
2019-01-18T13:56:19.591Z,1.57
2019-01-18T13:58:48.877Z,3.33
2019-01-18T14:01:19.252Z,2.30
2019-01-18T14:03:48.522Z,3.33
2019-01-18T14:06:17.794Z,2.23
2019-01-18T14:08:47.077Z,1.77
2019-01-18T14:11:17.820Z,2.03
2019-01-18T14:13:47.147Z,1.50
2019-01-18T14:16:16.764Z,3.60
2019-01-18T14:18:46.103Z,1.37
2019-01-18T14:21:15.437Z,1.93
2019-01-18T14:23:44.708Z,3.57
2019-01-18T14:26:13.978Z,1.17
2019-01-18T14:28:43.247Z,1.53
2019-01-18T14:31:12.551Z,3.70
2019-01-18T14:33:41.838Z,1.37
2019-01-18T14:36:14.666Z,2.93
2019-01-18T14:39:04.258Z,1.97
2019-01-18T14:41:33.580Z,2.37
2019-01-18T14:44:02.871Z,2.70
2019-01-18T14:46:32.162Z,0.90
2019-01-18T14:49:01.416Z,0.80
2019-01-18T14:51:30.781Z,1.10
2019-01-18T14:54:00.080Z,2.43
2019-01-18T14:56:29.381Z,0.97
2019-01-18T14:58:58.684Z,0.93
2019-01-18T15:01:27.926Z,1.37
2019-01-18T15:03:57.195Z,1.20
2019-01-18T15:06:27.930Z,1.43
2019-01-18T15:08:57.186Z,1.60
2019-01-18T15:11:26.469Z,1.90
2019-01-18T15:13:55.742Z,1.70
2019-01-18T15:16:25.094Z,0.80
2019-01-18T15:18:54.376Z,2.20
2019-01-18T15:21:23.632Z,3.10
2019-01-18T15:23:52.944Z,1.73
2019-01-18T15:26:22.202Z,1.77
2019-01-18T15:28:51.475Z,3.43
2019-01-18T15:31:20.755Z,2.03
2019-01-18T15:33:50.011Z,1.87
2019-01-18T15:36:19.282Z,2.17
2019-01-18T15:38:48.569Z,2.23
2019-01-18T15:41:17.842Z,3.63
2019-01-18T15:43:48.597Z,3.73
2019-01-18T15:46:17.874Z,1.90
2019-01-18T15:48:47.295Z,2.70
2019-01-18T15:51:16.577Z,1.80
2019-01-18T15:53:47.664Z,2.73
2019-01-18T15:56:17.075Z,2.17
2019-01-18T15:58:46.339Z,2.77
2019-01-18T16:01:15.674Z,2.17
2019-01-18T16:03:45.010Z,1.93
2019-01-18T16:06:14.316Z,3.00
2019-01-18T16:08:45.370Z,1.70
2019-01-18T16:11:14.624Z,4.03
2019-01-18T16:13:46.704Z,3.33
2019-01-18T16:16:59.724Z,4.90
2019-01-18T16:19:29.128Z,11.60
2019-01-18T16:21:58.502Z,7.67
2019-01-18T16:24:27.853Z,10.50
2019-01-18T16:26:58.729Z,7.07
2019-01-18T16:29:28.105Z,6.33
2019-01-18T16:31:58.758Z,3.80
2019-01-18T16:34:28.071Z,4.43
2019-01-18T16:36:57.320Z,5.20
2019-01-18T16:39:28.118Z,4.03
2019-01-18T16:41:57.434Z,3.40
2019-01-18T16:44:26.792Z,7.67
2019-01-18T16:46:56.140Z,9.47
2019-01-18T16:49:25.397Z,7.13
2019-01-18T16:51:54.685Z,9.00
2019-01-18T16:54:23.990Z,8.83
2019-01-18T16:56:56.367Z,9.03
2019-01-18T16:59:26.219Z,9.07
2019-01-18T17:01:55.535Z,9.10
2019-01-18T17:04:24.828Z,8.13
2019-01-18T17:06:54.926Z,9.77
2019-01-18T17:09:24.621Z,10.00
2019-01-18T17:11:53.887Z,12.07
2019-01-18T17:14:24.995Z,8.00
2019-01-18T17:16:55.397Z,9.13
2019-01-18T17:19:24.667Z,10.37
2019-01-18T17:21:54.172Z,13.00
2019-01-18T17:24:23.491Z,8.13
2019-01-18T17:26:52.771Z,9.23
2019-01-18T17:29:22.143Z,8.27
2019-01-18T17:31:51.415Z,10.03
2019-01-18T17:34:20.692Z,8.77
2019-01-18T17:37:17.104Z,8.40
2019-01-18T17:39:57.524Z,9.20
2019-01-18T17:42:43.544Z,7.40
2019-01-18T17:45:49.876Z,11.63
2019-01-18T17:49:01.260Z,12.40
2019-01-18T17:51:59.019Z,13.30
2019-01-18T17:54:44.267Z,11.83
2019-01-18T17:58:09.640Z,12.43
2019-01-18T18:01:04.032Z,16.20
2019-01-18T18:04:16.268Z,23.17
2019-01-18T18:06:51.822Z,28.43
2019-01-18T18:09:47.637Z,22.30
2019-01-18T18:12:53.440Z,14.47
2019-01-18T18:16:04.096Z,16.07
2019-01-18T18:18:52.993Z,16.37
2019-01-18T18:22:13.059Z,15.40
2019-01-18T18:25:12.399Z,16.10
2019-01-18T18:28:21.971Z,15.10
2019-01-18T18:31:17.084Z,12.23
2019-01-18T18:34:30.558Z,28.90
2019-01-18T18:37:13.213Z,14.00
2019-01-18T18:40:19.530Z,17.83
2019-01-18T18:43:22.113Z,12.70
2019-01-18T18:46:29.478Z,13.97
2019-01-18T18:49:29.809Z,13.10
2019-01-18T18:53:04.278Z,11.47
2019-01-18T18:56:04.811Z,11.63
2019-01-18T18:59:20.913Z,9.77
2019-01-18T19:02:35.044Z,10.73
2019-01-18T19:05:30.695Z,14.50
2019-01-18T19:08:46.761Z,15.00
2019-01-18T19:11:52.029Z,15.93
2019-01-18T19:15:08.730Z,14.80
2019-01-18T19:18:07.872Z,15.70
2019-01-18T19:21:23.060Z,8.73
2019-01-18T19:24:45.094Z,15.27
2019-01-18T19:27:56.510Z,13.67
2019-01-18T19:31:22.154Z,10.53
2019-01-18T19:34:17.325Z,14.17
2019-01-18T19:37:28.754Z,11.07
2019-01-18T19:40:38.571Z,12.00
2019-01-18T19:43:57.638Z,12.70
2019-01-18T19:46:52.729Z,12.80
2019-01-18T19:49:51.064Z,12.23
2019-01-18T19:53:07.492Z,14.57
2019-01-18T19:56:05.202Z,11.13
2019-01-18T19:59:14.649Z,14.30
2019-01-18T20:02:20.741Z,11.67
2019-01-18T20:05:30.312Z,10.77
2019-01-18T20:08:42.979Z,13.57
2019-01-18T20:11:40.241Z,14.87
2019-01-18T20:14:50.226Z,9.50
2019-01-18T20:17:34.344Z,11.47
2019-01-18T20:20:53.189Z,10.20
2019-01-18T20:24:19.096Z,11.83
2019-01-18T20:27:14.117Z,9.30
2019-01-18T20:30:20.677Z,16.33
2019-01-18T20:33:20.363Z,19.93
2019-01-18T20:36:30.580Z,16.30
2019-01-18T20:39:28.800Z,13.17
2019-01-18T20:42:28.290Z,16.37
2019-01-18T20:45:17.148Z,16.97
2019-01-18T20:48:15.494Z,11.80
2019-01-18T20:51:06.419Z,13.30
2019-01-18T20:54:16.582Z,14.63
2019-01-18T20:57:12.933Z,13.93
2019-01-18T20:59:59.386Z,14.10
2019-01-18T21:02:57.400Z,12.13
2019-01-18T21:05:57.833Z,13.40
2019-01-18T21:09:14.179Z,10.87
2019-01-18T21:12:02.576Z,9.27
2019-01-18T21:15:14.503Z,11.23
2019-01-18T21:18:21.879Z,9.13
2019-01-18T21:21:38.155Z,8.87
2019-01-18T21:24:40.092Z,10.93
2019-01-18T21:27:39.956Z,10.67
2019-01-18T21:31:01.495Z,12.60
2019-01-18T21:34:23.590Z,9.40
2019-01-18T21:37:22.639Z,10.73
2019-01-18T21:40:31.760Z,10.87
2019-01-18T21:43:21.834Z,11.23
2019-01-18T21:46:53.700Z,11.80
2019-01-18T21:49:39.195Z,8.00
2019-01-18T21:52:46.576Z,9.03
2019-01-18T21:55:25.112Z,9.17
2019-01-18T21:58:35.372Z,8.53
2019-01-18T22:01:49.596Z,9.13
2019-01-18T22:05:09.031Z,7.73
2019-01-18T22:08:04.455Z,9.27
2019-01-18T22:11:05.623Z,9.87
2019-01-18T22:14:22.358Z,13.23
2019-01-18T22:17:31.863Z,7.20
2019-01-18T22:20:38.480Z,10.13
2019-01-18T22:23:29.404Z,7.13
2019-01-18T22:26:30.858Z,6.10
2019-01-18T22:29:50.440Z,6.33
2019-01-18T22:32:57.855Z,3.87
2019-01-18T22:36:12.503Z,5.73
2019-01-18T22:39:00.669Z,7.00
2019-01-18T22:42:14.783Z,4.93
2019-01-18T22:44:57.171Z,5.67
2019-01-18T22:48:08.311Z,7.57
2019-01-18T22:51:23.372Z,5.97
2019-01-18T22:54:22.906Z,7.50
2019-01-18T22:57:39.419Z,6.33
2019-01-18T23:01:06.251Z,3.70
2019-01-18T23:04:27.706Z,4.40
2019-01-18T23:07:34.285Z,7.53
2019-01-18T23:10:46.559Z,6.53
2019-01-18T23:13:51.745Z,6.43
2019-01-18T23:16:59.597Z,5.77
2019-01-18T23:20:25.473Z,6.07
2019-01-18T23:23:57.040Z,9.13
2019-01-18T23:27:07.931Z,6.77
2019-01-18T23:29:47.932Z,8.37
2019-01-18T23:32:37.109Z,8.20
2019-01-18T23:35:28.302Z,7.20
2019-01-18T23:38:31.004Z,8.93
2019-01-18T23:41:27.798Z,10.30
2019-01-18T23:44:31.941Z,8.77
2019-01-18T23:47:26.237Z,7.17
2019-01-18T23:50:12.481Z,7.67
2019-01-18T23:53:09.474Z,8.47
2019-01-18T23:56:22.604Z,8.93
2019-01-18T23:59:08.394Z,7.50
